Time;durP1;ratioP1;P1;durP2;ratioP2;P2;SDS_P1;SDS_P2;PMS_P1;PMS_P2;Temp;Humidity;BMP_temperature;BMP_pressure;BME280_temperature;BME280_humidity;BME280_pressure;Samples;Min_cycle;Max_cycle;Signal;HPM_P1;HPM_P2
2021/07/06 00:01:57;;;;;;;0.80;0.50;;;19.20;99.90;;;;;;5095671;28;20445;-56
2021/07/06 00:04:23;;;;;;;1.30;0.50;;;19.30;99.90;;;;;;5095399;28;20871;-56
2021/07/06 00:06:50;;;;;;;0.50;0.40;;;19.50;99.90;;;;;;5096584;28;20518;-54
2021/07/06 00:09:18;;;;;;;0.50;0.40;;;19.40;99.90;;;;;;5096597;28;20438;-56
2021/07/06 00:11:46;;;;;;;0.80;0.50;;;19.40;99.90;;;;;;5096404;28;20457;-62
2021/07/06 00:14:13;;;;;;;0.90;0.40;;;19.40;99.90;;;;;;5096147;28;20520;-56
2021/07/06 00:16:40;;;;;;;0.80;0.40;;;19.50;99.90;;;;;;5096827;28;20430;-55
2021/07/06 00:19:07;;;;;;;0.80;0.30;;;19.50;99.90;;;;;;5094986;28;20479;-57
2021/07/06 00:21:34;;;;;;;0.50;0.35;;;19.50;99.90;;;;;;5096384;28;20457;-57
2021/07/06 00:24:01;;;;;;;0.80;0.40;;;19.50;99.90;;;;;;5095274;28;20498;-56
2021/07/06 00:26:28;;;;;;;0.60;0.40;;;19.50;99.90;;;;;;5095349;28;20815;-56
2021/07/06 00:28:56;;;;;;;0.82;0.40;;;19.40;99.90;;;;;;5094602;28;20422;-56
2021/07/06 00:31:23;;;;;;;0.70;0.47;;;19.40;99.90;;;;;;5094091;28;20516;-57
2021/07/06 00:33:52;;;;;;;1.30;0.40;;;19.30;99.90;;;;;;5094065;28;21012;-56
2021/07/06 00:36:19;;;;;;;1.10;0.40;;;19.40;99.90;;;;;;5094693;28;20430;-55
2021/07/06 00:38:46;;;;;;;0.60;0.40;;;19.50;99.90;;;;;;5094807;28;20426;-55
2021/07/06 00:41:13;;;;;;;0.60;0.40;;;19.40;99.90;;;;;;5094454;28;20464;-56
2021/07/06 00:43:40;;;;;;;1.30;0.50;;;19.30;99.90;;;;;;5094774;28;20830;-55
2021/07/06 00:46:08;;;;;;;0.60;0.40;;;19.30;99.90;;;;;;5094264;28;20516;-54
2021/07/06 00:48:35;;;;;;;1.20;0.40;;;19.20;99.90;;;;;;5094711;28;20448;-57
2021/07/06 00:51:02;;;;;;;0.70;0.40;;;19.20;99.90;;;;;;5095479;28;20802;-57
2021/07/06 00:53:30;;;;;;;0.50;0.40;;;19.20;99.90;;;;;;5095985;28;20488;-56
2021/07/06 00:55:58;;;;;;;0.77;0.40;;;19.10;99.90;;;;;;5095669;28;20884;-56
2021/07/06 00:58:27;;;;;;;0.60;0.40;;;19.00;99.90;;;;;;5093753;28;20901;-57
2021/07/06 01:00:54;;;;;;;0.70;0.40;;;19.00;99.90;;;;;;5095079;28;20799;-56
2021/07/06 01:03:23;;;;;;;0.60;0.40;;;18.90;99.90;;;;;;5095144;28;20504;-57
2021/07/06 01:05:50;;;;;;;0.60;0.40;;;18.90;99.90;;;;;;5095294;28;20429;-56
2021/07/06 01:08:17;;;;;;;0.50;0.40;;;18.80;99.90;;;;;;5094873;28;20809;-57
2021/07/06 01:10:44;;;;;;;0.63;0.40;;;18.80;99.90;;;;;;5094013;28;20425;-56
2021/07/06 01:13:12;;;;;;;1.00;0.40;;;19.00;99.90;;;;;;5093757;28;20872;-57
2021/07/06 01:15:39;;;;;;;0.70;0.40;;;18.90;99.90;;;;;;5093851;28;20482;-56
2021/07/06 01:18:08;;;;;;;0.60;0.40;;;19.00;99.90;;;;;;5093082;28;20508;-56
2021/07/06 01:20:38;;;;;;;0.60;0.40;;;19.00;99.90;;;;;;5092941;28;20528;-55
2021/07/06 01:23:07;;;;;;;0.65;0.40;;;18.90;99.90;;;;;;5093101;28;20483;-56
2021/07/06 01:25:35;;;;;;;0.90;0.50;;;18.90;99.90;;;;;;5094401;28;20465;-55
2021/07/06 01:28:04;;;;;;;0.70;0.40;;;18.90;99.90;;;;;;5095397;28;20475;-56
2021/07/06 01:30:31;;;;;;;0.70;0.40;;;18.80;99.90;;;;;;5095339;28;20825;-53
2021/07/06 01:32:58;;;;;;;0.70;0.50;;;18.90;99.90;;;;;;5095394;28;20464;-55
2021/07/06 01:35:25;;;;;;;0.70;0.40;;;18.80;99.90;;;;;;5094874;28;20446;-55
2021/07/06 01:37:54;;;;;;;2.03;0.40;;;18.80;99.90;;;;;;5094881;28;20457;-56
2021/07/06 01:40:24;;;;;;;1.25;0.40;;;18.80;99.90;;;;;;5094740;28;20475;-54
2021/07/06 01:42:52;;;;;;;0.60;0.40;;;18.90;99.90;;;;;;5095047;28;20758;-55
2021/07/06 01:45:21;;;;;;;0.73;0.50;;;18.90;99.90;;;;;;5094737;28;20528;-54
2021/07/06 01:47:50;;;;;;;0.60;0.40;;;18.90;99.90;;;;;;5095219;28;20462;-55
2021/07/06 01:50:19;;;;;;;0.52;0.40;;;19.00;99.90;;;;;;5094565;28;20418;-57
2021/07/06 01:52:49;;;;;;;2.10;0.40;;;19.00;99.90;;;;;;5094465;28;20783;-55
2021/07/06 01:55:19;;;;;;;0.90;0.50;;;19.10;99.90;;;;;;5092742;28;20445;-56
2021/07/06 01:57:48;;;;;;;1.10;0.40;;;19.00;99.90;;;;;;5092430;28;20504;-56
2021/07/06 02:00:18;;;;;;;0.80;0.50;;;19.00;99.90;;;;;;5095273;28;20450;-57
2021/07/06 02:02:45;;;;;;;0.60;0.40;;;19.00;99.90;;;;;;5094685;28;20776;-55
2021/07/06 02:05:27;;;;;;;0.60;0.40;;;19.00;99.90;;;;;;5094338;28;20429;-55
2021/07/06 02:07:54;;;;;;;0.60;0.40;;;18.90;99.90;;;;;;5093427;28;20421;-56
2021/07/06 02:10:22;;;;;;;0.70;0.40;;;18.90;99.90;;;;;;5094366;28;20439;-56
2021/07/06 02:12:51;;;;;;;0.80;0.50;;;18.90;99.90;;;;;;5094687;28;20475;-54
2021/07/06 02:15:18;;;;;;;1.00;0.43;;;19.00;99.90;;;;;;5094709;28;20445;-56
2021/07/06 02:17:46;;;;;;;0.60;0.40;;;19.00;99.90;;;;;;5094595;28;20409;-56
2021/07/06 02:20:15;;;;;;;1.20;0.50;;;19.00;99.90;;;;;;5094608;28;20521;-56
2021/07/06 02:22:43;;;;;;;0.60;0.47;;;19.00;99.90;;;;;;5094717;28;20442;-56
2021/07/06 02:25:11;;;;;;;0.60;0.40;;;18.90;99.90;;;;;;5094198;28;20516;-57
2021/07/06 02:27:38;;;;;;;0.70;0.50;;;18.90;99.90;;;;;;5093739;28;20886;-57
2021/07/06 02:30:10;;;;;;;0.77;0.40;;;19.00;99.90;;;;;;5093948;28;20509;-55
2021/07/06 02:32:37;;;;;;;0.80;0.47;;;19.00;99.90;;;;;;5094074;28;20434;-54
2021/07/06 02:35:06;;;;;;;0.70;0.50;;;18.90;99.90;;;;;;5094291;28;20504;-56
2021/07/06 02:37:33;;;;;;;0.60;0.40;;;19.00;99.90;;;;;;5094045;28;20514;-57
2021/07/06 02:40:00;;;;;;;1.00;0.50;;;19.00;99.90;;;;;;5091527;28;20898;-56
2021/07/06 02:42:27;;;;;;;1.10;0.40;;;19.10;99.90;;;;;;5094078;28;20861;-55
2021/07/06 02:44:54;;;;;;;0.90;0.40;;;18.80;99.90;;;;;;5094139;28;20528;-56
2021/07/06 02:47:22;;;;;;;0.70;0.50;;;18.80;99.90;;;;;;5094364;28;20426;-57
2021/07/06 02:49:49;;;;;;;0.50;0.40;;;18.90;99.90;;;;;;5094420;28;20489;-56
2021/07/06 02:52:16;;;;;;;0.70;0.40;;;18.90;99.90;;;;;;5097668;28;20528;-57
2021/07/06 02:54:43;;;;;;;0.70;0.45;;;18.90;99.90;;;;;;5097907;28;20795;-57
2021/07/06 02:57:10;;;;;;;0.50;0.33;;;18.80;99.90;;;;;;5096702;28;20469;-56
2021/07/06 02:59:37;;;;;;;0.50;0.40;;;18.70;99.90;;;;;;5097957;28;20413;-57
2021/07/06 03:02:04;;;;;;;0.50;0.40;;;18.70;99.90;;;;;;5097626;28;20798;-57
2021/07/06 03:04:33;;;;;;;1.00;0.40;;;18.80;99.90;;;;;;5097593;28;20903;-57
2021/07/06 03:06:59;;;;;;;0.70;0.40;;;18.80;99.90;;;;;;5097168;28;20487;-57
2021/07/06 03:09:26;;;;;;;0.60;0.40;;;18.90;99.90;;;;;;5097246;28;20504;-54
2021/07/06 03:11:53;;;;;;;0.60;0.40;;;18.80;99.90;;;;;;5097337;28;20468;-56
2021/07/06 03:14:20;;;;;;;0.70;0.50;;;18.80;99.90;;;;;;5097400;28;20908;-54
2021/07/06 03:16:47;;;;;;;0.60;0.40;;;18.90;99.90;;;;;;5097603;28;20461;-56
2021/07/06 03:19:14;;;;;;;0.65;0.40;;;18.90;99.90;;;;;;5097381;28;20497;-57
2021/07/06 03:21:42;;;;;;;0.80;0.50;;;18.90;99.90;;;;;;5096112;28;20425;-56
2021/07/06 03:24:09;;;;;;;0.90;0.40;;;18.90;99.90;;;;;;5096918;28;20718;-57
2021/07/06 03:26:36;;;;;;;0.90;0.60;;;18.80;99.90;;;;;;5097136;28;20426;-57
2021/07/06 03:29:03;;;;;;;1.15;0.40;;;18.70;99.90;;;;;;5097479;28;20501;-57
2021/07/06 03:31:30;;;;;;;0.60;0.50;;;18.70;99.90;;;;;;5095997;28;20436;-57
2021/07/06 03:33:56;;;;;;;0.70;0.40;;;18.70;99.90;;;;;;5096508;28;20453;-57
2021/07/06 03:36:23;;;;;;;0.60;0.40;;;18.90;99.90;;;;;;5096211;28;20612;-57
2021/07/06 03:38:51;;;;;;;0.60;0.40;;;18.90;99.90;;;;;;5095612;28;20418;-57
2021/07/06 03:41:18;;;;;;;0.57;0.40;;;18.90;99.90;;;;;;5096080;28;20513;-56
2021/07/06 03:43:45;;;;;;;1.00;0.40;;;18.80;99.90;;;;;;5095820;28;20888;-57
2021/07/06 03:46:12;;;;;;;0.70;0.40;;;18.70;99.90;;;;;;5096562;28;20896;-56
2021/07/06 03:48:39;;;;;;;0.60;0.40;;;18.80;99.90;;;;;;5096701;28;20849;-56
2021/07/06 03:51:06;;;;;;;0.60;0.40;;;18.80;99.90;;;;;;5096892;28;20425;-54
2021/07/06 03:53:32;;;;;;;0.60;0.40;;;18.70;99.90;;;;;;5096890;28;20512;-51
2021/07/06 03:56:01;;;;;;;1.10;0.50;;;18.70;99.90;;;;;;5096639;28;20520;-51
2021/07/06 03:58:27;;;;;;;0.60;0.40;;;18.70;99.90;;;;;;5094804;28;20505;-51
2021/07/06 04:00:54;;;;;;;0.70;0.40;;;18.70;99.90;;;;;;5096236;28;20428;-56
2021/07/06 04:03:25;;;;;;;1.60;0.50;;;18.70;99.90;;;;;;5096275;28;20499;-50
2021/07/06 04:05:52;;;;;;;0.60;0.40;;;18.70;99.90;;;;;;5096469;28;20434;-54
2021/07/06 04:08:18;;;;;;;0.50;0.40;;;18.70;99.90;;;;;;5095908;28;20497;-51
2021/07/06 04:10:45;;;;;;;0.60;0.40;;;18.90;99.90;;;;;;5096309;28;20524;-54
2021/07/06 04:13:13;;;;;;;1.20;0.50;;;18.90;99.90;;;;;;5096074;28;20872;-53
2021/07/06 04:15:40;;;;;;;0.70;0.50;;;18.90;99.90;;;;;;5095951;28;20458;-51
2021/07/06 04:18:07;;;;;;;0.50;0.35;;;19.00;99.90;;;;;;5096007;28;20424;-53
2021/07/06 04:20:34;;;;;;;0.50;0.40;;;18.90;99.90;;;;;;5095807;28;20461;-56
2021/07/06 04:23:01;;;;;;;0.60;0.40;;;18.90;99.90;;;;;;5095885;28;20517;-55
2021/07/06 04:25:30;;;;;;;0.60;0.40;;;18.80;99.90;;;;;;5093931;28;21061;-53
2021/07/06 04:27:57;;;;;;;0.80;0.40;;;18.80;99.90;;;;;;5093537;28;20598;-51
2021/07/06 04:30:25;;;;;;;0.60;0.40;;;18.80;99.90;;;;;;5095326;28;20461;-56
2021/07/06 04:32:52;;;;;;;0.52;0.40;;;18.90;99.90;;;;;;5095271;28;20513;-57
2021/07/06 04:35:22;;;;;;;0.70;0.40;;;19.10;99.90;;;;;;5094278;28;20479;-52
2021/07/06 04:37:50;;;;;;;0.60;0.40;;;19.10;99.90;;;;;;5095410;28;20487;-53
2021/07/06 04:40:17;;;;;;;0.70;0.40;;;19.20;99.90;;;;;;5095104;28;20458;-56
2021/07/06 04:42:44;;;;;;;0.50;0.40;;;19.20;99.90;;;;;;5095293;28;20513;-54
2021/07/06 04:45:12;;;;;;;0.80;0.40;;;19.30;99.90;;;;;;5095453;28;20803;-55
2021/07/06 04:47:41;;;;;;;0.90;0.50;;;19.50;99.90;;;;;;5095047;28;20516;-55
2021/07/06 04:50:10;;;;;;;0.60;0.40;;;19.50;99.90;;;;;;5094741;28;20833;-54
2021/07/06 04:52:37;;;;;;;0.70;0.50;;;19.50;99.90;;;;;;5095252;28;20426;-55
2021/07/06 04:55:05;;;;;;;0.65;0.50;;;19.50;99.90;;;;;;5094985;28;20507;-54
2021/07/06 04:57:32;;;;;;;0.52;0.40;;;19.40;99.90;;;;;;5093431;28;20729;-53
2021/07/06 04:59:59;;;;;;;0.70;0.47;;;19.50;99.90;;;;;;5094178;28;20422;-54
2021/07/06 05:02:26;;;;;;;0.80;0.40;;;19.50;99.90;;;;;;5095156;28;20478;-56
2021/07/06 05:04:54;;;;;;;0.70;0.50;;;19.60;99.90;;;;;;5094213;28;20430;-57
2021/07/06 05:07:22;;;;;;;0.70;0.50;;;19.70;99.90;;;;;;5093111;28;20517;-53
2021/07/06 05:09:49;;;;;;;0.93;0.50;;;19.80;99.90;;;;;;5094116;28;20861;-52
2021/07/06 05:12:16;;;;;;;0.70;0.50;;;19.80;99.90;;;;;;5094178;28;20487;-56
2021/07/06 05:14:43;;;;;;;1.00;0.40;;;19.90;99.90;;;;;;5093227;28;20786;-57
2021/07/06 05:17:09;;;;;;;0.80;0.40;;;19.90;99.90;;;;;;5094219;28;20770;-57
2021/07/06 05:19:36;;;;;;;0.80;0.40;;;19.80;99.90;;;;;;5094136;28;20512;-56
2021/07/06 05:22:05;;;;;;;1.00;0.40;;;19.80;99.90;;;;;;5094266;28;20528;-54
2021/07/06 05:24:32;;;;;;;0.90;0.40;;;19.80;99.90;;;;;;5093912;28;20453;-51
2021/07/06 05:26:59;;;;;;;0.70;0.40;;;19.80;99.90;;;;;;5092906;28;20574;-55
2021/07/06 05:29:26;;;;;;;0.70;0.40;;;19.80;99.90;;;;;;5093207;28;20509;-55
2021/07/06 05:31:53;;;;;;;0.60;0.40;;;19.80;99.90;;;;;;5093515;28;20440;-56
2021/07/06 05:34:21;;;;;;;0.70;0.40;;;19.90;99.90;;;;;;5093058;28;21465;-56
2021/07/06 05:36:49;;;;;;;0.60;0.40;;;19.90;99.90;;;;;;5090367;28;20516;-56
2021/07/06 05:39:18;;;;;;;0.70;0.40;;;19.90;99.90;;;;;;5090963;28;20417;-56
2021/07/06 05:41:44;;;;;;;0.60;0.40;;;20.00;99.90;;;;;;5091649;28;20521;-56
2021/07/06 05:44:13;;;;;;;1.00;0.50;;;20.00;99.90;;;;;;5091793;28;20909;-56
2021/07/06 05:46:40;;;;;;;0.70;0.40;;;19.90;99.90;;;;;;5089971;28;20729;-57
2021/07/06 05:49:07;;;;;;;1.30;0.50;;;19.90;99.90;;;;;;5087428;28;20456;-57
2021/07/06 05:51:33;;;;;;;0.60;0.40;;;19.90;99.90;;;;;;5087937;28;20425;-57
2021/07/06 05:54:00;;;;;;;0.60;0.40;;;19.90;99.90;;;;;;5088249;28;20501;-57
2021/07/06 05:56:30;;;;;;;0.73;0.40;;;20.00;99.90;;;;;;5087626;28;20417;-57
2021/07/06 05:58:57;;;;;;;0.70;0.40;;;20.10;99.90;;;;;;5088816;28;20425;-56
2021/07/06 06:01:24;;;;;;;0.60;0.40;;;20.10;99.90;;;;;;5089845;28;20856;-56
2021/07/06 06:03:51;;;;;;;0.80;0.40;;;20.20;99.90;;;;;;5090561;28;20410;-56
2021/07/06 06:06:17;;;;;;;1.00;0.30;;;20.20;99.90;;;;;;5090618;28;20429;-56
2021/07/06 06:08:44;;;;;;;0.40;0.30;;;20.40;99.90;;;;;;5088956;28;20497;-57
2021/07/06 06:11:11;;;;;;;1.10;0.40;;;20.50;99.90;;;;;;5087624;28;20517;-58
2021/07/06 06:13:39;;;;;;;0.50;0.30;;;20.50;99.90;;;;;;5087395;28;20496;-58
2021/07/06 06:16:07;;;;;;;0.63;0.40;;;20.60;99.90;;;;;;5085499;28;20845;-57
2021/07/06 06:18:34;;;;;;;0.50;0.40;;;20.70;99.90;;;;;;5086037;28;20418;-57
2021/07/06 06:21:01;;;;;;;0.60;0.30;;;20.80;99.90;;;;;;5086373;28;20487;-58
2021/07/06 06:23:28;;;;;;;0.50;0.40;;;21.00;99.90;;;;;;5087975;28;20445;-57
2021/07/06 06:25:55;;;;;;;0.80;0.30;;;21.10;99.90;;;;;;5091523;28;20436;-58
2021/07/06 06:28:22;;;;;;;0.60;0.40;;;21.20;99.90;;;;;;5091463;28;20410;-58
2021/07/06 06:30:50;;;;;;;0.50;0.30;;;21.30;99.90;;;;;;5093057;28;20581;-59
2021/07/06 06:33:17;;;;;;;1.05;0.30;;;21.40;99.90;;;;;;5093539;28;20525;-58
2021/07/06 06:35:44;;;;;;;0.63;0.30;;;21.40;99.90;;;;;;5094177;28;20481;-58
2021/07/06 06:38:11;;;;;;;0.63;0.50;;;21.50;99.90;;;;;;5094933;28;20521;-58
2021/07/06 06:40:38;;;;;;;0.45;0.30;;;21.60;99.90;;;;;;5096535;28;20528;-53
2021/07/06 06:43:05;;;;;;;0.50;0.40;;;21.70;99.90;;;;;;5081461;28;20418;-52
2021/07/06 06:45:32;;;;;;;0.50;0.30;;;21.80;99.90;;;;;;5076176;28;20438;-55
2021/07/06 06:48:00;;;;;;;0.50;0.30;;;21.90;99.90;;;;;;5075348;28;20423;-49
2021/07/06 06:50:28;;;;;;;0.40;0.30;;;22.00;99.90;;;;;;5073034;28;20457;-53
2021/07/06 06:52:54;;;;;;;0.50;0.30;;;22.10;99.90;;;;;;5077794;28;20459;-54
2021/07/06 06:55:21;;;;;;;0.43;0.30;;;22.10;99.90;;;;;;5071829;28;20419;-55
2021/07/06 06:57:48;;;;;;;0.40;0.30;;;22.30;99.90;;;;;;5071185;28;20906;-55
2021/07/06 07:00:15;;;;;;;1.00;0.30;;;22.40;99.90;;;;;;5071860;28;20744;-55
2021/07/06 07:02:43;;;;;;;0.40;0.30;;;22.40;99.90;;;;;;5071794;28;20837;-50
2021/07/06 07:05:13;;;;;;;0.40;0.20;;;22.50;99.90;;;;;;5072684;28;20423;-53
2021/07/06 07:07:39;;;;;;;1.00;0.30;;;22.60;99.90;;;;;;5073784;28;20448;-54
2021/07/06 07:10:08;;;;;;;0.47;0.30;;;22.70;99.90;;;;;;5073520;28;20922;-51
2021/07/06 07:12:36;;;;;;;0.50;0.30;;;22.90;99.90;;;;;;5073180;28;20534;-55
2021/07/06 07:15:04;;;;;;;0.50;0.30;;;23.20;99.90;;;;;;5074874;28;20416;-60
2021/07/06 07:17:31;;;;;;;0.50;0.30;;;23.40;99.90;;;;;;5073873;28;20526;-60
2021/07/06 07:19:58;;;;;;;0.40;0.30;;;23.50;99.90;;;;;;5073938;28;20434;-58
2021/07/06 07:22:26;;;;;;;0.52;0.30;;;23.60;99.90;;;;;;5073661;28;20438;-59
2021/07/06 07:24:53;;;;;;;0.60;0.30;;;23.60;99.90;;;;;;5073983;28;20465;-59
2021/07/06 07:27:20;;;;;;;1.00;0.30;;;23.60;99.90;;;;;;5073829;28;20533;-58
2021/07/06 07:29:46;;;;;;;0.40;0.22;;;23.70;99.90;;;;;;5072721;28;20779;-59
2021/07/06 07:32:15;;;;;;;2.30;0.30;;;23.70;99.90;;;;;;5073755;28;20431;-59
2021/07/06 07:34:42;;;;;;;0.50;0.30;;;23.80;99.90;;;;;;5074422;28;20463;-58
2021/07/06 07:37:09;;;;;;;0.50;0.30;;;23.90;99.90;;;;;;5072759;28;20428;-59
2021/07/06 07:39:37;;;;;;;0.50;0.30;;;24.00;99.90;;;;;;5074532;28;20419;-58
2021/07/06 07:42:05;;;;;;;0.40;0.30;;;24.00;99.90;;;;;;5074458;28;20443;-57
2021/07/06 07:44:32;;;;;;;0.80;0.30;;;24.00;99.90;;;;;;5075412;28;20803;-60
2021/07/06 07:47:00;;;;;;;0.50;0.30;;;24.10;99.90;;;;;;5072204;28;20526;-59
2021/07/06 07:49:27;;;;;;;0.40;0.20;;;24.20;99.90;;;;;;5071636;28;20451;-58
2021/07/06 07:51:54;;;;;;;1.15;0.30;;;24.30;99.90;;;;;;5074823;28;20485;-59
2021/07/06 07:54:21;;;;;;;0.40;0.30;;;24.50;99.90;;;;;;5073143;28;20464;-59
2021/07/06 07:56:49;;;;;;;0.50;0.30;;;24.60;99.90;;;;;;5071289;28;20450;-59
2021/07/06 07:59:16;;;;;;;0.45;0.30;;;24.80;99.90;;;;;;5071483;28;20502;-58
2021/07/06 08:01:43;;;;;;;0.70;0.30;;;24.80;99.90;;;;;;5071184;28;20793;-58
2021/07/06 08:04:10;;;;;;;0.50;0.30;;;24.60;99.90;;;;;;5071791;28;20458;-59
2021/07/06 08:06:37;;;;;;;1.00;0.30;;;24.60;99.90;;;;;;5071776;28;20435;-57
2021/07/06 08:09:05;;;;;;;0.60;0.30;;;24.60;99.90;;;;;;5071704;28;20599;-59
2021/07/06 08:11:32;;;;;;;0.40;0.30;;;24.60;99.90;;;;;;5073996;28;20450;-58
2021/07/06 08:14:00;;;;;;;0.50;0.22;;;24.60;99.90;;;;;;5093605;28;20517;-59
2021/07/06 08:16:27;;;;;;;0.80;0.30;;;24.60;99.90;;;;;;5089701;28;20521;-59
2021/07/06 08:18:54;;;;;;;0.60;0.30;;;24.70;99.90;;;;;;5072216;28;20411;-58
2021/07/06 08:21:21;;;;;;;0.52;0.30;;;24.60;99.90;;;;;;5075563;28;20909;-59
2021/07/06 08:23:48;;;;;;;0.40;0.30;;;24.60;99.90;;;;;;5090320;28;20422;-57
2021/07/06 08:26:17;;;;;;;0.40;0.30;;;24.70;99.90;;;;;;5069665;28;20726;-60
2021/07/06 08:28:45;;;;;;;0.40;0.30;;;24.90;99.90;;;;;;5070676;28;20722;-60
2021/07/06 08:31:14;;;;;;;0.50;0.30;;;25.10;99.90;;;;;;5069581;28;20439;-60
2021/07/06 08:33:41;;;;;;;0.40;0.30;;;25.30;99.90;;;;;;5088255;28;20742;-60
2021/07/06 08:36:07;;;;;;;0.40;0.30;;;25.40;99.90;;;;;;5091695;28;20744;-60
2021/07/06 08:38:38;;;;;;;0.50;0.30;;;25.60;99.90;;;;;;5089090;28;20505;-60
2021/07/06 08:41:05;;;;;;;0.50;0.30;;;25.90;99.90;;;;;;5091761;28;20637;-60
2021/07/06 08:43:32;;;;;;;0.40;0.30;;;25.90;99.90;;;;;;5085809;28;20530;-58
2021/07/06 08:46:00;;;;;;;0.50;0.30;;;25.80;99.90;;;;;;5073017;28;20843;-59
2021/07/06 08:48:31;;;;;;;0.40;0.30;;;25.70;99.90;;;;;;5088897;28;20814;-61
2021/07/06 08:50:59;;;;;;;0.50;0.30;;;25.80;99.90;;;;;;5092963;28;20791;-61
2021/07/06 08:53:27;;;;;;;0.63;0.20;;;25.90;99.90;;;;;;5075223;28;20430;-60
2021/07/06 08:55:54;;;;;;;0.60;0.40;;;25.80;99.90;;;;;;5073133;28;20431;-60
2021/07/06 08:58:21;;;;;;;0.47;0.30;;;25.90;99.90;;;;;;5073305;28;20503;-60
2021/07/06 09:00:48;;;;;;;0.40;0.30;;;26.00;99.90;;;;;;5076889;28;20465;-59
2021/07/06 09:03:15;;;;;;;0.88;0.30;;;26.20;99.90;;;;;;5083167;28;20417;-59
2021/07/06 09:05:44;;;;;;;0.40;0.30;;;26.30;99.90;;;;;;5080501;28;20458;-61
2021/07/06 09:08:17;;;;;;;0.50;0.30;;;26.30;99.90;;;;;;5076630;28;20454;-60
2021/07/06 09:10:44;;;;;;;0.50;0.30;;;26.40;99.90;;;;;;5071836;28;20530;-61
2021/07/06 09:13:25;;;;;;;2.00;0.40;;;26.10;99.90;;;;;;5070950;28;20542;-61
2021/07/06 09:15:54;;;;;;;0.90;0.30;;;26.00;99.90;;;;;;5070927;28;20502;-60
2021/07/06 09:18:22;;;;;;;0.50;0.30;;;25.90;99.90;;;;;;5072137;28;20504;-60
2021/07/06 09:21:02;;;;;;;0.70;0.30;;;25.90;99.90;;;;;;5071008;28;20887;-61
2021/07/06 09:23:34;;;;;;;0.50;0.30;;;25.70;99.90;;;;;;5072233;28;20419;-61
2021/07/06 09:26:21;;;;;;;0.40;0.30;;;25.70;99.90;;;;;;5070177;28;20432;-61
2021/07/06 09:28:49;;;;;;;0.52;0.40;;;25.50;99.90;;;;;;5080403;28;20719;-60
2021/07/06 09:31:31;;;;;;;1.50;0.40;;;25.20;99.90;;;;;;5070338;28;20938;-60
2021/07/06 09:34:04;;;;;;;0.70;0.40;;;24.70;99.90;;;;;;5073998;28;20423;-59
2021/07/06 09:36:35;;;;;;;0.65;0.40;;;24.20;99.90;;;;;;5071090;28;20499;-60
2021/07/06 09:39:06;;;;;;;0.60;0.30;;;24.10;99.90;;;;;;5068674;28;20458;-63
2021/07/06 09:41:33;;;;;;;0.60;0.30;;;23.90;99.90;;;;;;5069618;28;20916;-61
2021/07/06 09:44:22;;;;;;;0.50;0.30;;;23.70;99.90;;;;;;5068849;28;20415;-60
2021/07/06 09:46:52;;;;;;;0.50;0.30;;;23.50;99.90;;;;;;5073748;28;20464;-60
2021/07/06 09:49:21;;;;;;;0.45;0.20;;;23.50;99.90;;;;;;5082049;28;20868;-60
2021/07/06 09:51:50;;;;;;;0.60;0.30;;;23.50;99.90;;;;;;5072966;28;20760;-61
2021/07/06 09:54:34;;;;;;;0.50;0.30;;;23.50;99.90;;;;;;5076455;28;20853;-61
2021/07/06 09:57:06;;;;;;;0.70;0.20;;;23.30;99.90;;;;;;5073617;28;20987;-60
2021/07/06 09:59:33;;;;;;;0.50;0.20;;;23.20;99.90;;;;;;5075396;28;20453;-60
2021/07/06 10:02:03;;;;;;;0.77;0.20;;;23.30;99.90;;;;;;5078185;28;20509;-60
2021/07/06 10:04:31;;;;;;;0.50;0.20;;;23.40;99.90;;;;;;5085613;28;20447;-59
2021/07/06 10:07:00;;;;;;;0.70;0.20;;;23.40;99.90;;;;;;5081864;28;20882;-60
2021/07/06 10:09:27;;;;;;;0.40;0.20;;;23.60;99.90;;;;;;5081759;28;20603;-59
2021/07/06 10:11:56;;;;;;;0.30;0.20;;;23.70;99.90;;;;;;5075052;28;20511;-59
2021/07/06 10:14:24;;;;;;;0.40;0.20;;;24.00;99.90;;;;;;5089864;28;20512;-60
2021/07/06 10:16:51;;;;;;;0.80;0.20;;;24.10;99.90;;;;;;5095264;28;20426;-60
2021/07/06 10:19:19;;;;;;;0.40;0.20;;;24.20;99.90;;;;;;5086210;28;20420;-60
2021/07/06 10:21:46;;;;;;;0.40;0.20;;;23.90;99.90;;;;;;5094951;28;20465;-59
2021/07/06 10:24:17;;;;;;;0.35;0.20;;;23.70;99.90;;;;;;5093243;28;20503;-60
2021/07/06 10:26:45;;;;;;;0.40;0.20;;;23.60;99.90;;;;;;5090703;28;20888;-60
2021/07/06 10:29:12;;;;;;;0.40;0.20;;;23.50;99.90;;;;;;5075027;28;21035;-60
2021/07/06 10:31:43;;;;;;;0.50;0.20;;;23.60;99.90;;;;;;5073924;28;20516;-60
2021/07/06 10:34:21;;;;;;;0.80;0.70;;;23.70;99.90;;;;;;5074405;28;20490;-61
2021/07/06 10:36:48;;;;;;;0.40;0.20;;;24.10;99.90;;;;;;5074273;28;20431;-60
2021/07/06 10:39:18;;;;;;;0.47;0.20;;;24.30;99.90;;;;;;5074170;28;20415;-61
2021/07/06 10:41:57;;;;;;;0.40;0.20;;;24.60;99.90;;;;;;5072689;28;20462;-61
2021/07/06 10:44:34;;;;;;;0.40;0.20;;;25.00;99.90;;;;;;5072866;28;20467;-60
2021/07/06 10:47:02;;;;;;;0.40;0.20;;;25.10;99.90;;;;;;5074721;28;20475;-60
2021/07/06 10:49:33;;;;;;;0.50;0.20;;;25.00;99.90;;;;;;5080392;28;20497;-61
2021/07/06 10:52:03;;;;;;;0.50;0.20;;;25.10;99.90;;;;;;5082412;28;20567;-61
2021/07/06 10:54:42;;;;;;;0.80;0.20;;;25.10;99.90;;;;;;5076847;28;20838;-60
2021/07/06 10:57:26;;;;;;;0.40;0.20;;;25.00;99.90;;;;;;5081644;28;20436;-60
2021/07/06 10:59:58;;;;;;;0.40;0.20;;;25.10;99.90;;;;;;5086228;28;20836;-61
2021/07/06 11:02:26;;;;;;;0.30;0.20;;;25.40;99.90;;;;;;5074988;28;20435;-60
2021/07/06 11:05:11;;;;;;;0.40;0.20;;;25.50;99.90;;;;;;5072981;28;20805;-60
2021/07/06 11:07:56;;;;;;;0.30;0.10;;;25.40;99.90;;;;;;5075653;28;20473;-59
2021/07/06 11:10:41;;;;;;;0.50;0.20;;;24.50;99.90;;;;;;5074133;28;20765;-60
2021/07/06 11:13:22;;;;;;;0.40;0.20;;;24.50;99.90;;;;;;5075530;28;20789;-58
2021/07/06 11:15:50;;;;;;;0.30;0.10;;;24.50;99.90;;;;;;5070937;28;21023;-59
2021/07/06 11:18:17;;;;;;;0.30;0.20;;;24.60;99.90;;;;;;5090276;28;20876;-59
2021/07/06 11:20:45;;;;;;;0.40;0.20;;;24.60;99.90;;;;;;5077226;28;20508;-62
2021/07/06 11:23:18;;;;;;;0.40;0.20;;;24.70;99.90;;;;;;5072426;28;20514;-59
2021/07/06 11:25:49;;;;;;;0.40;0.20;;;25.00;99.90;;;;;;5072291;28;20860;-59
2021/07/06 11:28:24;;;;;;;0.40;0.20;;;25.30;99.90;;;;;;5073310;28;20473;-60
2021/07/06 11:30:53;;;;;;;0.50;0.20;;;25.40;99.90;;;;;;5072797;28;20923;-60
2021/07/06 11:33:21;;;;;;;0.40;0.10;;;25.60;99.90;;;;;;5074037;28;20950;-60
2021/07/06 11:35:50;;;;;;;0.40;0.20;;;25.60;99.90;;;;;;5084340;28;20487;-60
2021/07/06 11:38:19;;;;;;;0.40;0.20;;;25.70;99.90;;;;;;5093889;28;20790;-60
2021/07/06 11:40:50;;;;;;;0.90;0.20;;;25.40;99.90;;;;;;5094015;28;20486;-61
2021/07/06 11:43:19;;;;;;;0.40;0.20;;;25.40;99.90;;;;;;5093092;28;20449;-59
2021/07/06 11:45:51;;;;;;;0.30;0.20;;;24.90;99.90;;;;;;5093799;28;20703;-60
2021/07/06 11:48:19;;;;;;;0.40;0.20;;;24.80;99.90;;;;;;5093631;28;20480;-59
2021/07/06 11:50:48;;;;;;;0.40;0.20;;;24.80;99.90;;;;;;5093257;28;20639;-59
2021/07/06 11:53:16;;;;;;;0.30;0.20;;;24.70;99.90;;;;;;5092554;28;20460;-59
2021/07/06 11:55:44;;;;;;;0.63;0.13;;;24.60;99.90;;;;;;5092643;28;20460;-59
2021/07/06 11:58:13;;;;;;;0.40;0.20;;;24.60;99.90;;;;;;5086530;28;20700;-59
2021/07/06 12:00:41;;;;;;;0.43;0.20;;;24.50;99.90;;;;;;5072873;28;20435;-57
2021/07/06 12:03:19;;;;;;;0.30;0.10;;;24.40;99.90;;;;;;5073111;28;20455;-58
2021/07/06 12:05:47;;;;;;;0.40;0.20;;;24.40;99.90;;;;;;5072943;28;20514;-57
2021/07/06 12:08:16;;;;;;;0.40;0.20;;;24.20;99.90;;;;;;5072370;28;21041;-57
2021/07/06 12:10:57;;;;;;;0.30;0.20;;;24.10;99.90;;;;;;5072995;28;20521;-58
2021/07/06 12:13:27;;;;;;;0.60;0.20;;;24.00;99.90;;;;;;5072974;28;20418;-59
2021/07/06 12:15:57;;;;;;;0.30;0.20;;;24.10;99.90;;;;;;5072157;28;20531;-58
2021/07/06 12:18:24;;;;;;;0.40;0.20;;;24.40;99.90;;;;;;5072320;28;20715;-58
2021/07/06 12:20:56;;;;;;;0.40;0.20;;;24.80;99.90;;;;;;5072837;28;20514;-57
2021/07/06 12:23:24;;;;;;;1.10;0.10;;;25.00;99.90;;;;;;5072455;28;20427;-59
2021/07/06 12:25:53;;;;;;;0.30;0.13;;;25.30;99.90;;;;;;5072202;28;20687;-58
2021/07/06 12:28:20;;;;;;;0.70;0.20;;;24.80;99.90;;;;;;5071944;28;20459;-57
2021/07/06 12:31:22;;;;;;;0.30;0.20;;;24.70;99.90;;;;;;5072056;28;20529;-57
2021/07/06 12:34:02;;;;;;;0.40;0.10;;;24.80;99.90;;;;;;5070894;28;20423;-58
2021/07/06 12:36:30;;;;;;;0.30;0.20;;;25.00;99.90;;;;;;5071859;28;20427;-57
2021/07/06 12:39:20;;;;;;;0.40;0.20;;;24.70;99.90;;;;;;5071918;28;20444;-58
2021/07/06 12:41:50;;;;;;;0.80;0.20;;;24.20;99.90;;;;;;5074463;28;20753;-58
2021/07/06 12:44:30;;;;;;;0.30;0.10;;;24.30;99.90;;;;;;5072629;28;20525;-58
2021/07/06 12:47:15;;;;;;;0.80;0.10;;;24.40;99.90;;;;;;5074665;28;20489;-58
2021/07/06 12:49:45;;;;;;;0.40;0.10;;;24.60;99.90;;;;;;5073953;28;20459;-57
2021/07/06 12:52:12;;;;;;;0.40;0.20;;;24.50;99.90;;;;;;5071947;28;20527;-57
2021/07/06 12:54:41;;;;;;;0.43;0.20;;;24.50;99.90;;;;;;5072050;28;20899;-57
2021/07/06 12:57:12;;;;;;;0.35;0.20;;;24.20;99.90;;;;;;5070671;28;20434;-58